Terminal Aerodrome Forecast
Issued by NWS Memphis, TN

Current Version | Previous Version | Text Only | Print | Product List | Glossary On
Versions: 1 2 3 4 5 6 7 8 9 10 11 12 13 14 15 16 17 18 19 20 21 22 23 24 25 26 27 28 29 30 31 32 33
000
FTUS44 KMEG 251737
TAFMEM
TAF
KMEM 251737Z 2518/2618 18008KT P6SM BKN015 OVC025
     FM252200 18013KT P6SM VCTS BKN030CB BKN250
      TEMPO 2602/2604 3SM TSRA BKN025CB
     FM260400 16012KT P6SM SHRA VCTS BKN025CB
     FM260800 18015G22KT P6SM -RA OVC025
     FM261200 18018G22KT P6SM VCSH OVC030=

USA.gov is the U.S. government's official web portal to all federal, state and local government web resources and services.